sensor_id;sensor_type;location;lat;lon;timestamp;pressure;altitude;pressure_sealevel;temperature;humidity
37170;BME280;23062;13.952;100.608;2022-09-16T00:02:31;748.77;;;-142.63;70.90
37170;BME280;23062;13.952;100.608;2022-09-16T00:07:21;748.75;;;-142.63;71.54
37170;BME280;23062;13.952;100.608;2022-09-16T00:12:10;748.77;;;-142.63;71.23
37170;BME280;23062;13.952;100.608;2022-09-16T00:17:03;748.88;;;-142.63;71.90
37170;BME280;23062;13.952;100.608;2022-09-16T00:21:57;749.01;;;-142.63;72.21
37170;BME280;23062;13.952;100.608;2022-09-16T00:26:46;749.02;;;-142.63;72.15
37170;BME280;23062;13.952;100.608;2022-09-16T00:31:36;748.96;;;-142.63;72.38
37170;BME280;23062;13.952;100.608;2022-09-16T00:36:25;748.96;;;-142.63;71.56
37170;BME280;23062;13.952;100.608;2022-09-16T00:41:21;748.93;;;-142.63;71.39
37170;BME280;23062;13.952;100.608;2022-09-16T00:46:10;748.95;;;-142.63;71.68
37170;BME280;23062;13.952;100.608;2022-09-16T00:51:04;748.91;;;-142.63;71.41
37170;BME280;23062;13.952;100.608;2022-09-16T00:56:00;748.95;;;-142.63;71.10
37170;BME280;23062;13.952;100.608;2022-09-16T01:00:52;749.03;;;-142.63;70.61
37170;BME280;23062;13.952;100.608;2022-09-16T01:05:41;748.99;;;-142.63;70.30
37170;BME280;23062;13.952;100.608;2022-09-16T01:10:32;749.05;;;-142.63;69.88
37170;BME280;23062;13.952;100.608;2022-09-16T01:15:23;749.03;;;-142.63;69.96
37170;BME280;23062;13.952;100.608;2022-09-16T01:45:50;749.28;;;-142.63;69.79
37170;BME280;23062;13.952;100.608;2022-09-16T01:50:46;749.26;;;-142.63;68.70
37170;BME280;23062;13.952;100.608;2022-09-16T01:55:39;749.20;;;-142.63;67.52
37170;BME280;23062;13.952;100.608;2022-09-16T02:00:29;749.21;;;-142.63;67.12
37170;BME280;23062;13.952;100.608;2022-09-16T02:05:25;749.15;;;-142.63;67.06
37170;BME280;23062;13.952;100.608;2022-09-16T02:10:34;748.93;;;-142.63;67.20
37170;BME280;23062;13.952;100.608;2022-09-16T02:15:24;748.83;;;-142.63;65.82
37170;BME280;23062;13.952;100.608;2022-09-16T02:20:18;748.84;;;-142.63;65.61
37170;BME280;23062;13.952;100.608;2022-09-16T02:25:08;748.82;;;-142.63;65.83
37170;BME280;23062;13.952;100.608;2022-09-16T02:30:06;748.71;;;-142.63;66.62
37170;BME280;23062;13.952;100.608;2022-09-16T02:34:57;748.62;;;-142.63;67.64
37170;BME280;23062;13.952;100.608;2022-09-16T02:39:48;748.42;;;-142.63;67.54
37170;BME280;23062;13.952;100.608;2022-09-16T02:44:43;748.46;;;-142.63;67.40
37170;BME280;23062;13.952;100.608;2022-09-16T02:49:53;748.39;;;-142.63;67.27
37170;BME280;23062;13.952;100.608;2022-09-16T02:59:39;748.13;;;-142.63;65.92
37170;BME280;23062;13.952;100.608;2022-09-16T03:04:29;748.10;;;-142.63;64.10
37170;BME280;23062;13.952;100.608;2022-09-16T03:09:19;748.09;;;-142.63;62.82
37170;BME280;23062;13.952;100.608;2022-09-16T03:19:53;748.04;;;-142.63;61.22
37170;BME280;23062;13.952;100.608;2022-09-16T03:24:57;748.01;;;-142.63;60.93
37170;BME280;23062;13.952;100.608;2022-09-16T03:29:50;748.04;;;-142.63;61.06
37170;BME280;23062;13.952;100.608;2022-09-16T03:39:31;747.91;;;-142.63;59.48
37170;BME280;23062;13.952;100.608;2022-09-16T03:44:28;747.90;;;-142.63;59.97
37170;BME280;23062;13.952;100.608;2022-09-16T03:49:10;747.86;;;-142.63;60.27
37170;BME280;23062;13.952;100.608;2022-09-16T03:54:00;747.89;;;-142.63;60.69
37170;BME280;23062;13.952;100.608;2022-09-16T03:58:54;747.85;;;-142.63;60.85
37170;BME280;23062;13.952;100.608;2022-09-16T04:03:43;747.73;;;-142.63;60.70
37170;BME280;23062;13.952;100.608;2022-09-16T04:08:32;747.53;;;-142.63;59.79
37170;BME280;23062;13.952;100.608;2022-09-16T04:13:22;747.44;;;-142.63;59.43
37170;BME280;23062;13.952;100.608;2022-09-16T04:18:12;747.35;;;-142.63;59.28
37170;BME280;23062;13.952;100.608;2022-09-16T04:23:01;747.38;;;-142.63;60.24
37170;BME280;23062;13.952;100.608;2022-09-16T04:27:50;747.22;;;-142.63;60.44
37170;BME280;23062;13.952;100.608;2022-09-16T04:32:40;747.17;;;-142.63;60.51
37170;BME280;23062;13.952;100.608;2022-09-16T04:37:30;747.09;;;-142.63;60.29
37170;BME280;23062;13.952;100.608;2022-09-16T04:42:20;747.05;;;-142.63;60.23
37170;BME280;23062;13.952;100.608;2022-09-16T04:47:09;746.98;;;-142.63;59.02
37170;BME280;23062;13.952;100.608;2022-09-16T04:52:02;746.83;;;-142.63;58.10
37170;BME280;23062;13.952;100.608;2022-09-16T04:56:51;746.70;;;-142.63;57.47
37170;BME280;23062;13.952;100.608;2022-09-16T05:01:41;746.70;;;-142.63;57.43
37170;BME280;23062;13.952;100.608;2022-09-16T05:06:35;746.69;;;-142.63;57.84
37170;BME280;23062;13.952;100.608;2022-09-16T05:11:27;746.48;;;-142.63;56.56
37170;BME280;23062;13.952;100.608;2022-09-16T05:16:18;746.44;;;-142.63;57.40
37170;BME280;23062;13.952;100.608;2022-09-16T05:21:10;746.41;;;-142.63;57.77
37170;BME280;23062;13.952;100.608;2022-09-16T05:26:07;746.35;;;-142.63;57.93
37170;BME280;23062;13.952;100.608;2022-09-16T05:31:10;746.13;;;-142.63;57.11
37170;BME280;23062;13.952;100.608;2022-09-16T05:36:08;746.08;;;-142.63;57.27
37170;BME280;23062;13.952;100.608;2022-09-16T05:41:00;745.90;;;-142.63;57.24
37170;BME280;23062;13.952;100.608;2022-09-16T05:45:53;745.72;;;-142.63;56.67
37170;BME280;23062;13.952;100.608;2022-09-16T05:55:38;745.54;;;-142.63;57.65
37170;BME280;23062;13.952;100.608;2022-09-16T06:00:27;745.45;;;-142.63;57.27
37170;BME280;23062;13.952;100.608;2022-09-16T06:05:16;745.45;;;-142.63;57.91
37170;BME280;23062;13.952;100.608;2022-09-16T06:10:06;745.37;;;-142.63;58.02
37170;BME280;23062;13.952;100.608;2022-09-16T06:14:55;745.24;;;-142.63;57.60
37170;BME280;23062;13.952;100.608;2022-09-16T06:19:44;745.10;;;-142.63;57.89
37170;BME280;23062;13.952;100.608;2022-09-16T06:24:34;744.99;;;-142.63;57.87
37170;BME280;23062;13.952;100.608;2022-09-16T06:29:27;744.91;;;-142.63;57.74
37170;BME280;23062;13.952;100.608;2022-09-16T06:34:17;744.86;;;-142.63;58.32
37170;BME280;23062;13.952;100.608;2022-09-16T06:39:10;744.80;;;-142.63;58.11
37170;BME280;23062;13.952;100.608;2022-09-16T06:44:00;744.65;;;-142.63;57.68
37170;BME280;23062;13.952;100.608;2022-09-16T06:48:56;744.45;;;-142.63;57.20
37170;BME280;23062;13.952;100.608;2022-09-16T06:53:47;744.32;;;-142.63;57.26
37170;BME280;23062;13.952;100.608;2022-09-16T06:58:37;744.32;;;-142.63;57.39
37170;BME280;23062;13.952;100.608;2022-09-16T07:03:26;744.22;;;-142.63;57.36
37170;BME280;23062;13.952;100.608;2022-09-16T07:08:16;744.13;;;-142.63;57.32
37170;BME280;23062;13.952;100.608;2022-09-16T07:13:06;744.01;;;-142.63;57.53
37170;BME280;23062;13.952;100.608;2022-09-16T07:17:56;743.97;;;-142.63;57.69
37170;BME280;23062;13.952;100.608;2022-09-16T07:22:45;743.78;;;-142.63;56.90
37170;BME280;23062;13.952;100.608;2022-09-16T07:27:41;743.81;;;-142.63;56.89
37170;BME280;23062;13.952;100.608;2022-09-16T07:32:30;743.72;;;-142.63;56.76
37170;BME280;23062;13.952;100.608;2022-09-16T07:37:20;743.72;;;-142.63;56.72
37170;BME280;23062;13.952;100.608;2022-09-16T07:42:10;743.57;;;-142.63;56.50
37170;BME280;23062;13.952;100.608;2022-09-16T07:46:59;743.47;;;-142.63;56.40
37170;BME280;23062;13.952;100.608;2022-09-16T07:51:51;743.42;;;-142.63;56.58
37170;BME280;23062;13.952;100.608;2022-09-16T07:56:41;743.30;;;-142.63;56.44
37170;BME280;23062;13.952;100.608;2022-09-16T08:01:31;743.17;;;-142.63;56.17
37170;BME280;23062;13.952;100.608;2022-09-16T08:06:26;743.16;;;-142.63;55.98
37170;BME280;23062;13.952;100.608;2022-09-16T08:11:15;743.06;;;-142.63;56.03
37170;BME280;23062;13.952;100.608;2022-09-16T08:16:07;743.03;;;-142.63;56.17
37170;BME280;23062;13.952;100.608;2022-09-16T08:20:57;742.97;;;-142.63;56.30
37170;BME280;23062;13.952;100.608;2022-09-16T08:25:55;742.92;;;-142.63;56.50
37170;BME280;23062;13.952;100.608;2022-09-16T08:30:45;742.93;;;-142.63;56.55
37170;BME280;23062;13.952;100.608;2022-09-16T08:35:34;742.88;;;-142.63;56.02
37170;BME280;23062;13.952;100.608;2022-09-16T08:40:24;742.91;;;-142.63;55.78
37170;BME280;23062;13.952;100.608;2022-09-16T08:45:30;742.90;;;-142.63;55.63
37170;BME280;23062;13.952;100.608;2022-09-16T08:50:22;742.79;;;-142.63;55.44
37170;BME280;23062;13.952;100.608;2022-09-16T08:55:29;742.73;;;-142.63;55.14
37170;BME280;23062;13.952;100.608;2022-09-16T09:00:19;742.63;;;-142.63;54.93
37170;BME280;23062;13.952;100.608;2022-09-16T09:15:45;742.64;;;-142.63;54.70
37170;BME280;23062;13.952;100.608;2022-09-16T09:20:44;742.60;;;-142.63;54.70
37170;BME280;23062;13.952;100.608;2022-09-16T09:30:53;742.62;;;-142.63;55.03
37170;BME280;23062;13.952;100.608;2022-09-16T09:40:59;742.63;;;-142.63;55.31
37170;BME280;23062;13.952;100.608;2022-09-16T09:46:03;742.64;;;-142.63;55.52
37170;BME280;23062;13.952;100.608;2022-09-16T09:50:52;742.57;;;-142.63;55.72
37170;BME280;23062;13.952;100.608;2022-09-16T09:55:42;742.53;;;-142.63;55.76
37170;BME280;23062;13.952;100.608;2022-09-16T10:00:31;742.54;;;-142.63;55.78
37170;BME280;23062;13.952;100.608;2022-09-16T10:05:23;742.52;;;-142.63;56.06
37170;BME280;23062;13.952;100.608;2022-09-16T10:10:15;742.54;;;-142.63;56.41
37170;BME280;23062;13.952;100.608;2022-09-16T10:15:05;742.53;;;-142.63;56.20
37170;BME280;23062;13.952;100.608;2022-09-16T10:20:01;742.50;;;-142.63;56.35
37170;BME280;23062;13.952;100.608;2022-09-16T10:25:05;742.66;;;-142.63;56.19
37170;BME280;23062;13.952;100.608;2022-09-16T10:34:56;742.85;;;-142.63;55.82
37170;BME280;23062;13.952;100.608;2022-09-16T10:39:55;742.94;;;-142.63;55.95
37170;BME280;23062;13.952;100.608;2022-09-16T10:44:41;742.91;;;-142.63;55.60
37170;BME280;23062;13.952;100.608;2022-09-16T10:49:43;742.99;;;-142.63;55.59
37170;BME280;23062;13.952;100.608;2022-09-16T10:54:25;743.07;;;-142.63;55.67
37170;BME280;23062;13.952;100.608;2022-09-16T10:59:15;743.19;;;-142.63;55.87
37170;BME280;23062;13.952;100.608;2022-09-16T11:09:10;743.32;;;-142.63;56.13
37170;BME280;23062;13.952;100.608;2022-09-16T11:14:03;743.36;;;-142.63;56.60
37170;BME280;23062;13.952;100.608;2022-09-16T11:19:11;743.39;;;-142.63;56.79
37170;BME280;23062;13.952;100.608;2022-09-16T11:29:36;743.71;;;-142.63;57.18
37170;BME280;23062;13.952;100.608;2022-09-16T11:45:21;744.01;;;-142.63;57.23
37170;BME280;23062;13.952;100.608;2022-09-16T11:50:16;744.05;;;-142.63;57.28
37170;BME280;23062;13.952;100.608;2022-09-16T12:00:18;744.11;;;-142.63;57.71
37170;BME280;23062;13.952;100.608;2022-09-16T12:05:21;744.14;;;-142.63;57.93
37170;BME280;23062;13.952;100.608;2022-09-16T12:10:27;744.18;;;-142.63;58.19
37170;BME280;23062;13.952;100.608;2022-09-16T12:15:26;744.18;;;-142.63;58.38
37170;BME280;23062;13.952;100.608;2022-09-16T12:20:18;744.23;;;-142.63;58.67
37170;BME280;23062;13.952;100.608;2022-09-16T12:35:00;744.33;;;-142.63;59.69
37170;BME280;23062;13.952;100.608;2022-09-16T12:39:49;744.36;;;-142.63;60.10
37170;BME280;23062;13.952;100.608;2022-09-16T12:44:52;744.46;;;-142.63;60.37
37170;BME280;23062;13.952;100.608;2022-09-16T13:00:24;744.66;;;-142.63;61.45
37170;BME280;23062;13.952;100.608;2022-09-16T13:05:23;744.85;;;-142.63;61.29
37170;BME280;23062;13.952;100.608;2022-09-16T13:10:31;745.01;;;-142.63;60.85
37170;BME280;23062;13.952;100.608;2022-09-16T13:15:28;745.17;;;-142.63;60.69
37170;BME280;23062;13.952;100.608;2022-09-16T13:20:30;745.21;;;-142.63;60.66
37170;BME280;23062;13.952;100.608;2022-09-16T13:25:28;745.30;;;-142.63;60.80
37170;BME280;23062;13.952;100.608;2022-09-16T13:30:32;745.39;;;-142.63;61.11
37170;BME280;23062;13.952;100.608;2022-09-16T13:35:33;745.43;;;-142.63;61.54
37170;BME280;23062;13.952;100.608;2022-09-16T13:40:29;745.43;;;-142.63;62.00
37170;BME280;23062;13.952;100.608;2022-09-16T13:45:38;745.47;;;-142.63;62.41
37170;BME280;23062;13.952;100.608;2022-09-16T13:50:29;745.58;;;-142.63;62.59
37170;BME280;23062;13.952;100.608;2022-09-16T13:55:24;745.71;;;-142.63;62.81
37170;BME280;23062;13.952;100.608;2022-09-16T14:00:26;745.60;;;-142.63;62.54
37170;BME280;23062;13.952;100.608;2022-09-16T14:05:26;745.36;;;-142.63;61.86
37170;BME280;23062;13.952;100.608;2022-09-16T14:10:44;745.36;;;-142.63;62.00
37170;BME280;23062;13.952;100.608;2022-09-16T14:15:33;745.37;;;-142.63;62.25
37170;BME280;23062;13.952;100.608;2022-09-16T14:20:27;745.33;;;-142.63;62.33
37170;BME280;23062;13.952;100.608;2022-09-16T14:25:29;745.39;;;-142.63;62.58
37170;BME280;23062;13.952;100.608;2022-09-16T14:30:20;745.42;;;-142.63;62.52
37170;BME280;23062;13.952;100.608;2022-09-16T14:35:27;745.42;;;-142.63;62.70
37170;BME280;23062;13.952;100.608;2022-09-16T14:40:21;745.50;;;-142.63;63.02
37170;BME280;23062;13.952;100.608;2022-09-16T14:45:14;745.51;;;-142.63;63.19
37170;BME280;23062;13.952;100.608;2022-09-16T14:50:17;745.59;;;-142.63;63.42
37170;BME280;23062;13.952;100.608;2022-09-16T14:55:13;745.64;;;-142.63;63.55
37170;BME280;23062;13.952;100.608;2022-09-16T15:00:05;745.79;;;-142.63;63.66
37170;BME280;23062;13.952;100.608;2022-09-16T15:10:08;745.88;;;-142.63;63.71
37170;BME280;23062;13.952;100.608;2022-09-16T15:15:09;745.92;;;-142.63;64.17
37170;BME280;23062;13.952;100.608;2022-09-16T15:19:57;745.91;;;-142.63;64.40
37170;BME280;23062;13.952;100.608;2022-09-16T15:24:49;745.95;;;-142.63;64.34
37170;BME280;23062;13.952;100.608;2022-09-16T15:29:47;745.92;;;-142.63;64.57
37170;BME280;23062;13.952;100.608;2022-09-16T15:34:37;745.91;;;-142.63;64.47
37170;BME280;23062;13.952;100.608;2022-09-16T15:39:36;745.96;;;-142.63;64.52
37170;BME280;23062;13.952;100.608;2022-09-16T15:44:27;745.95;;;-142.63;64.74
37170;BME280;23062;13.952;100.608;2022-09-16T15:49:24;745.93;;;-142.63;64.95
37170;BME280;23062;13.952;100.608;2022-09-16T15:54:26;745.98;;;-142.63;64.96
37170;BME280;23062;13.952;100.608;2022-09-16T15:59:35;745.97;;;-142.63;65.11
37170;BME280;23062;13.952;100.608;2022-09-16T16:04:33;745.96;;;-142.63;65.20
37170;BME280;23062;13.952;100.608;2022-09-16T16:14:20;745.95;;;-142.63;65.08
37170;BME280;23062;13.952;100.608;2022-09-16T16:19:11;745.89;;;-142.63;65.30
37170;BME280;23062;13.952;100.608;2022-09-16T16:24:03;745.84;;;-142.63;65.39
37170;BME280;23062;13.952;100.608;2022-09-16T16:28:53;745.86;;;-142.63;65.69
37170;BME280;23062;13.952;100.608;2022-09-16T16:33:46;745.85;;;-142.63;65.64
37170;BME280;23062;13.952;100.608;2022-09-16T16:38:36;745.82;;;-142.63;65.69
37170;BME280;23062;13.952;100.608;2022-09-16T16:43:28;745.87;;;-142.63;65.87
37170;BME280;23062;13.952;100.608;2022-09-16T16:48:17;745.83;;;-142.63;65.82
37170;BME280;23062;13.952;100.608;2022-09-16T16:53:09;745.80;;;-142.63;66.11
37170;BME280;23062;13.952;100.608;2022-09-16T16:57:59;745.80;;;-142.63;66.19
37170;BME280;23062;13.952;100.608;2022-09-16T17:02:49;745.83;;;-142.63;65.88
37170;BME280;23062;13.952;100.608;2022-09-16T17:07:38;745.78;;;-142.63;66.43
37170;BME280;23062;13.952;100.608;2022-09-16T17:12:28;745.80;;;-142.63;66.43
37170;BME280;23062;13.952;100.608;2022-09-16T17:17:17;745.80;;;-142.63;66.43
37170;BME280;23062;13.952;100.608;2022-09-16T17:22:06;745.77;;;-142.63;66.42
37170;BME280;23062;13.952;100.608;2022-09-16T17:26:56;745.81;;;-142.63;66.46
37170;BME280;23062;13.952;100.608;2022-09-16T17:31:45;745.80;;;-142.63;66.57
37170;BME280;23062;13.952;100.608;2022-09-16T17:36:36;745.84;;;-142.63;66.59
37170;BME280;23062;13.952;100.608;2022-09-16T17:41:32;745.88;;;-142.63;66.59
37170;BME280;23062;13.952;100.608;2022-09-16T17:46:22;745.90;;;-142.63;66.55
37170;BME280;23062;13.952;100.608;2022-09-16T17:51:14;746.00;;;-142.63;65.36
37170;BME280;23062;13.952;100.608;2022-09-16T17:56:09;745.91;;;-142.63;64.54
37170;BME280;23062;13.952;100.608;2022-09-16T18:01:08;745.73;;;-142.63;64.29
37170;BME280;23062;13.952;100.608;2022-09-16T18:05:54;745.67;;;-142.63;64.19
37170;BME280;23062;13.952;100.608;2022-09-16T18:10:53;745.65;;;-142.63;63.60
37170;BME280;23062;13.952;100.608;2022-09-16T18:15:42;745.73;;;-142.63;63.30
37170;BME280;23062;13.952;100.608;2022-09-16T18:20:33;745.78;;;-142.63;63.58
37170;BME280;23062;13.952;100.608;2022-09-16T18:25:22;745.80;;;-142.63;63.58
37170;BME280;23062;13.952;100.608;2022-09-16T18:30:12;745.79;;;-142.63;62.83
37170;BME280;23062;13.952;100.608;2022-09-16T18:35:03;745.78;;;-142.63;62.92
37170;BME280;23062;13.952;100.608;2022-09-16T18:39:53;745.72;;;-142.63;62.93
37170;BME280;23062;13.952;100.608;2022-09-16T18:44:42;745.51;;;-142.63;62.79
37170;BME280;23062;13.952;100.608;2022-09-16T18:49:31;745.40;;;-142.63;62.48
37170;BME280;23062;13.952;100.608;2022-09-16T18:54:25;745.31;;;-142.63;62.18
37170;BME280;23062;13.952;100.608;2022-09-16T18:59:19;745.29;;;-142.63;62.35
37170;BME280;23062;13.952;100.608;2022-09-16T19:04:12;745.29;;;-142.63;62.23
37170;BME280;23062;13.952;100.608;2022-09-16T19:09:03;745.34;;;-142.63;62.26
37170;BME280;23062;13.952;100.608;2022-09-16T19:13:53;745.40;;;-142.63;62.60
37170;BME280;23062;13.952;100.608;2022-09-16T19:18:50;745.37;;;-142.63;62.62
37170;BME280;23062;13.952;100.608;2022-09-16T19:23:41;745.29;;;-142.63;62.75
37170;BME280;23062;13.952;100.608;2022-09-16T19:28:30;745.21;;;-142.63;63.28
37170;BME280;23062;13.952;100.608;2022-09-16T19:33:20;745.32;;;-142.63;63.61
37170;BME280;23062;13.952;100.608;2022-09-16T19:38:10;745.42;;;-142.63;63.63
37170;BME280;23062;13.952;100.608;2022-09-16T19:43:00;745.39;;;-142.63;63.51
37170;BME280;23062;13.952;100.608;2022-09-16T19:47:49;745.39;;;-142.63;63.67
37170;BME280;23062;13.952;100.608;2022-09-16T19:52:39;745.34;;;-142.63;63.46
37170;BME280;23062;13.952;100.608;2022-09-16T19:57:29;745.30;;;-142.63;63.29
37170;BME280;23062;13.952;100.608;2022-09-16T20:02:19;745.41;;;-142.63;63.20
37170;BME280;23062;13.952;100.608;2022-09-16T20:07:08;745.43;;;-142.63;63.28
37170;BME280;23062;13.952;100.608;2022-09-16T20:11:59;745.35;;;-142.63;63.20
37170;BME280;23062;13.952;100.608;2022-09-16T20:16:50;745.41;;;-142.63;63.30
37170;BME280;23062;13.952;100.608;2022-09-16T20:21:40;745.44;;;-142.63;62.78
37170;BME280;23062;13.952;100.608;2022-09-16T20:26:30;745.50;;;-142.63;62.65
37170;BME280;23062;13.952;100.608;2022-09-16T20:31:22;745.59;;;-142.63;62.64
37170;BME280;23062;13.952;100.608;2022-09-16T20:36:13;745.62;;;-142.63;62.62
37170;BME280;23062;13.952;100.608;2022-09-16T20:41:11;745.59;;;-142.63;62.44
37170;BME280;23062;13.952;100.608;2022-09-16T20:46:10;745.56;;;-142.63;62.17
37170;BME280;23062;13.952;100.608;2022-09-16T20:50:55;745.65;;;-142.63;62.41
37170;BME280;23062;13.952;100.608;2022-09-16T20:55:45;745.68;;;-142.63;62.60
37170;BME280;23062;13.952;100.608;2022-09-16T21:00:34;745.67;;;-142.63;62.78
37170;BME280;23062;13.952;100.608;2022-09-16T21:05:24;745.68;;;-142.63;62.87
37170;BME280;23062;13.952;100.608;2022-09-16T21:10:14;745.74;;;-142.63;62.60
37170;BME280;23062;13.952;100.608;2022-09-16T21:15:03;745.73;;;-142.63;62.22
37170;BME280;23062;13.952;100.608;2022-09-16T21:19:53;745.70;;;-142.63;62.03
37170;BME280;23062;13.952;100.608;2022-09-16T21:24:42;745.75;;;-142.63;61.91
37170;BME280;23062;13.952;100.608;2022-09-16T21:29:32;745.83;;;-142.63;62.00
37170;BME280;23062;13.952;100.608;2022-09-16T21:34:21;745.93;;;-142.63;61.79
37170;BME280;23062;13.952;100.608;2022-09-16T21:39:12;745.97;;;-142.63;61.87
37170;BME280;23062;13.952;100.608;2022-09-16T21:44:01;746.04;;;-142.63;61.77
37170;BME280;23062;13.952;100.608;2022-09-16T21:48:51;746.05;;;-142.63;61.91
37170;BME280;23062;13.952;100.608;2022-09-16T21:53:41;746.07;;;-142.63;62.38
37170;BME280;23062;13.952;100.608;2022-09-16T21:58:30;746.11;;;-142.63;62.14
37170;BME280;23062;13.952;100.608;2022-09-16T22:03:19;746.21;;;-142.63;62.54
37170;BME280;23062;13.952;100.608;2022-09-16T22:08:09;746.20;;;-142.63;63.00
37170;BME280;23062;13.952;100.608;2022-09-16T22:12:59;746.22;;;-142.63;63.68
37170;BME280;23062;13.952;100.608;2022-09-16T22:17:50;746.21;;;-142.63;64.13
37170;BME280;23062;13.952;100.608;2022-09-16T22:22:41;746.40;;;-142.63;65.29
37170;BME280;23062;13.952;100.608;2022-09-16T22:27:31;746.63;;;-142.63;65.89
37170;BME280;23062;13.952;100.608;2022-09-16T22:32:20;746.79;;;-142.63;66.23
37170;BME280;23062;13.952;100.608;2022-09-16T22:37:09;746.79;;;-142.63;66.79
37170;BME280;23062;13.952;100.608;2022-09-16T22:41:58;746.99;;;-142.63;66.51
37170;BME280;23062;13.952;100.608;2022-09-16T22:46:48;747.14;;;-142.63;66.87
37170;BME280;23062;13.952;100.608;2022-09-16T22:51:37;747.10;;;-142.63;67.11
37170;BME280;23062;13.952;100.608;2022-09-16T22:56:30;747.20;;;-142.63;67.48
37170;BME280;23062;13.952;100.608;2022-09-16T23:01:23;747.26;;;-142.63;67.35
37170;BME280;23062;13.952;100.608;2022-09-16T23:06:13;747.43;;;-142.63;67.85
37170;BME280;23062;13.952;100.608;2022-09-16T23:11:06;747.37;;;-142.63;68.30
37170;BME280;23062;13.952;100.608;2022-09-16T23:15:54;747.32;;;-142.63;68.90
37170;BME280;23062;13.952;100.608;2022-09-16T23:20:43;747.44;;;-142.63;69.88
37170;BME280;23062;13.952;100.608;2022-09-16T23:25:34;747.38;;;-142.63;69.98
37170;BME280;23062;13.952;100.608;2022-09-16T23:30:24;747.51;;;-142.63;70.08
37170;BME280;23062;13.952;100.608;2022-09-16T23:35:13;747.60;;;-142.63;69.99
37170;BME280;23062;13.952;100.608;2022-09-16T23:40:06;747.70;;;-142.63;70.71
37170;BME280;23062;13.952;100.608;2022-09-16T23:44:55;747.80;;;-142.63;70.77
37170;BME280;23062;13.952;100.608;2022-09-16T23:49:45;747.90;;;-142.63;71.49
37170;BME280;23062;13.952;100.608;2022-09-16T23:54:33;748.01;;;-142.63;72.96
37170;BME280;23062;13.952;100.608;2022-09-16T23:59:22;747.98;;;-142.63;72.63
